Flight Number: EUR3070 Duration: 10:00
Departure: Lisboa / Portela (LPPT) at 07:30 Distance: 4163 Nm
Arrival: Rio de Janeiro (SBGL) at 17:30 Equipment: A340

Weather Information
Lisboa / Portela, Portugal (LPPT) 38-46N 009-08W 123M Jan 22, 2018 - 02:30 AM EST / 2018.01.22 0730 UTC
Wind: from the N (350 degrees) at 12 MPH (10 KT) (direction variable):0
Visibility: greater than 7 mile(s):0
Sky conditions: mostly cloudy Temperature: 53 F (12 C) Dew Point: 50 F (10 C) Relative Humidity: 87% Pressure (altimeter): 30.45 in. Hg (1031 hPa)
ob: LPPT 220730Z 35010KT 320V020 9999 BKN013 12/10 Q1031 cycle: 7
Sunrise: 07:52 Sunset: 17:43 (UTC)

Galeao, Brazil (SBGL) 22-49S 043-15W 42M Jan 22, 2018 - 03:00 AM EST / 2018.01.22 0800 UTC
Wind: from the N (350 degrees) at 3 MPH (3 KT):0
Visibility: greater than 7 mile(s):0
Sky conditions: mostly cloudy Temperature: 80 F (27 C) Dew Point: 73 F (23 C) Relative Humidity: 78% Pressure (altimeter): 29.83 in. Hg (1010 hPa)
ob: SBGL 220800Z 35003KT 9999 FEW020 BKN100 27/23 Q1010 cycle: 8
Sunrise: 08:29 Sunset: 21:40 (UTC)

TAF:2018/01/22 12:22 TAF SBGL 220510Z 2212/2318 04005KT 9999 FEW020 TX33/2217Z TN26/2309Z BECMG 2214/2216 13015KT TEMPO 2220/2223 TS FEW025 FEW030CB BECMG 2300/2302 07005KT BECMG 2304/2306 33005KT BECMG 2309/2311 04005KT BECMG 2314/2316 11010KT RMK PHQ

Previous Pireps for this route
Date Aircraft Flight time Fuel used Landing rate On time
2016-04-05A34008.45135994-163Yes
(pireps marked green are flown by you)

Route map